This is the latest recevied weather packets stored in our database for station/object YN1GRE-3. If no packets are shown the sender has not sent any weather packets the latest 10 day(s).
| Time | Temp. | Humidity | Pressure | Rain* | Wind** | Luminosity | Snow |
|---|---|---|---|---|---|---|---|
| 1778244635 | 23.89° C | 78% | 1012 hPa | 0 mm | - | - | - |
| 1778239101 | 25.56° C | 78% | 1011 hPa | 0 mm | - | - | - |
| 1778230097 | 23.33° C | 79% | 1011 hPa | 0 mm | - | - | - |
| 1778219157 | 22.22° C | 83% | 1012 hPa | 0 mm | - | - | - |
| 1778218256 | 22.22° C | 83% | 1012 hPa | 0 mm | - | - | - |
| 1778215555 | 22.22° C | 82% | 1013 hPa | 0 mm | - | - | - |
| 1778211824 | 22.78° C | 78% | 1013 hPa | 0 mm | - | - | - |
| 1778200758 | 26.11° C | 74% | 1011 hPa | 0 mm | - | - | - |
| 1778191752 | 26.67° C | 70% | 1010 hPa | 0 mm | - | - | - |
| 1778188921 | 27.78° C | 70% | 1010 hPa | 0 mm | - | - | - |
| 1778188020 | 28.33° C | 70% | 1010 hPa | 0 mm | - | - | - |
| 1778187118 | 28.89° C | 70% | 1010 hPa | 0 mm | - | - | - |
| 1778185318 | 30° C | 70% | 1011 hPa | 0 mm | - | - | - |
| 1778176051 | 30.56° C | 70% | 1013 hPa | 0 mm | - | - | - |
| 1778175150 | 31.11° C | 70% | 1013 hPa | 0 mm | - | - | - |
| 1778169617 | 28.89° C | 84% | 1013 hPa | 0 mm | - | - | - |
| 1778167816 | 26.67° C | 79% | 1013 hPa | 0 mm | - | - | - |
| 1778163313 | 29.44° C | 79% | 1012 hPa | 0 mm | - | - | - |
| 1778148900 | 22.22° C | 88% | 1011 hPa | 0 mm | - | - | - |
| 1778146198 | 22.78° C | 87% | 1011 hPa | 0 mm | - | - | - |
| 1778139763 | 22.78° C | 86% | 1011 hPa | 0 mm | - | - | - |
| 1778133329 | 23.89° C | 85% | 1013 hPa | 0 mm | - | - | - |
| 1778125225 | 22.78° C | 78% | 1013 hPa | 0 mm | - | - | - |
| 1778120594 | 23.33° C | 74% | 1013 hPa | 0 mm | - | - | - |
| 1778113000 | 25.56° C | 74% | 1011 hPa | 0 mm | - | - | - |
* Rain latest hour (hover to see other rain measurements)
** Current wind speed in m/s (hover to see current wind gust speed)